createdAt,value
2018-04-11T00:03:18.297Z,12.70
2018-04-11T00:08:13.417Z,12.70
2018-04-11T00:13:08.570Z,12.70
2018-04-11T00:18:02.983Z,12.70
2018-04-11T00:22:57.369Z,12.70
2018-04-11T00:27:51.740Z,12.70
2018-04-11T00:32:46.860Z,12.80
2018-04-11T00:37:42.003Z,12.70
2018-04-11T00:42:36.406Z,12.70
2018-04-11T00:47:30.932Z,12.70
2018-04-11T00:52:25.306Z,12.80
2018-04-11T00:57:19.677Z,12.90
2018-04-11T01:02:14.032Z,12.80
2018-04-11T01:07:08.403Z,12.90
2018-04-11T01:12:02.761Z,12.80
2018-04-11T01:16:57.140Z,12.80
2018-04-11T01:21:51.509Z,12.70
2018-04-11T01:26:46.659Z,12.60
2018-04-11T01:31:41.005Z,12.60
2018-04-11T01:36:35.381Z,12.60
2018-04-11T01:41:29.483Z,12.50
2018-04-11T01:46:23.871Z,12.50
2018-04-11T01:51:18.299Z,12.50
2018-04-11T01:56:12.680Z,12.50
2018-04-11T02:01:07.030Z,12.50
2018-04-11T02:06:02.423Z,12.50
2018-04-11T02:10:56.557Z,12.50
2018-04-11T02:15:51.457Z,12.50
2018-04-11T02:20:45.836Z,12.40
2018-04-11T02:25:40.188Z,12.50
2018-04-11T02:30:35.322Z,12.40
2018-04-11T02:35:29.668Z,12.40
2018-04-11T02:40:24.033Z,12.40
2018-04-11T02:45:18.394Z,12.30
2018-04-11T02:50:12.875Z,12.30
2018-04-11T02:55:07.257Z,12.30
2018-04-11T03:00:01.826Z,12.30
2018-04-11T03:04:56.995Z,12.20
2018-04-11T03:09:51.409Z,12.10
2018-04-11T03:14:45.793Z,12.10
2018-04-11T03:19:40.168Z,12.00
2018-04-11T03:24:34.512Z,12.00
2018-04-11T03:29:29.139Z,11.90
2018-04-11T03:34:23.346Z,11.90
2018-04-11T03:39:18.740Z,11.80
2018-04-11T03:44:13.119Z,11.80
2018-04-11T03:49:08.438Z,11.70
2018-04-11T03:54:02.914Z,11.70
2018-04-11T03:58:58.019Z,11.60
2018-04-11T04:03:52.388Z,11.60
2018-04-11T04:08:46.515Z,11.50
2018-04-11T04:13:57.770Z,11.30
2018-04-11T04:19:09.191Z,11.20
2018-04-11T04:24:04.145Z,11.10
2018-04-11T04:28:59.339Z,11.20
2018-04-11T04:33:53.705Z,11.20
2018-04-11T04:38:48.098Z,11.40
2018-04-11T04:43:42.463Z,11.40
2018-04-11T04:48:36.833Z,11.50
2018-04-11T04:53:31.189Z,11.60
2018-04-11T04:58:25.619Z,11.70
2018-04-11T05:03:20.775Z,11.70
2018-04-11T05:08:15.353Z,11.70
2018-04-11T05:13:09.727Z,11.80
2018-04-11T05:18:04.276Z,11.80
2018-04-11T05:22:58.623Z,11.80
2018-04-11T05:27:53.502Z,11.80
2018-04-11T05:32:47.890Z,11.80
2018-04-11T05:37:42.433Z,11.70
2018-04-11T05:42:36.910Z,11.80
2018-04-11T05:47:31.270Z,11.90
2018-04-11T05:52:26.415Z,12.00
2018-04-11T05:57:20.810Z,12.00
2018-04-11T06:02:16.064Z,12.00
2018-04-11T06:07:10.425Z,12.00
2018-04-11T06:12:05.550Z,12.20
2018-04-11T06:17:00.710Z,12.30
2018-04-11T06:21:55.343Z,12.30
2018-04-11T06:26:49.475Z,12.30
2018-04-11T06:31:44.751Z,12.40
2018-04-11T06:36:38.953Z,12.40
2018-04-11T06:41:33.587Z,12.40
2018-04-11T06:46:27.957Z,12.40
2018-04-11T06:51:22.601Z,12.40
2018-04-11T06:56:17.745Z,12.40
2018-04-11T07:01:12.884Z,12.40
2018-04-11T07:06:07.708Z,12.40
2018-04-11T07:11:02.077Z,12.40
2018-04-11T07:15:57.265Z,12.40
2018-04-11T07:20:51.647Z,12.40
2018-04-11T07:25:46.073Z,12.40
2018-04-11T07:30:40.598Z,12.40
2018-04-11T07:35:35.733Z,12.60
2018-04-11T07:40:31.015Z,12.70
2018-04-11T07:45:25.394Z,12.60
2018-04-11T07:50:19.884Z,12.70
2018-04-11T07:55:14.249Z,12.70
2018-04-11T08:00:08.710Z,12.70
2018-04-11T08:05:02.851Z,12.70
2018-04-11T08:09:57.822Z,12.70
2018-04-11T08:14:52.309Z,12.70
2018-04-11T08:19:46.444Z,12.70
2018-04-11T08:24:41.207Z,12.80
2018-04-11T08:29:35.537Z,12.70
2018-04-11T08:34:29.911Z,12.70
2018-04-11T08:39:24.263Z,12.70
2018-04-11T08:44:18.643Z,12.70
2018-04-11T08:49:12.999Z,12.70
2018-04-11T08:54:08.205Z,12.90
2018-04-11T08:59:04.315Z,13.00
2018-04-11T09:03:59.022Z,13.00
2018-04-11T09:08:53.385Z,13.10
2018-04-11T09:13:48.491Z,13.40
2018-04-11T09:18:43.613Z,13.50
2018-04-11T09:23:38.741Z,13.60
2018-04-11T09:28:33.876Z,13.60
2018-04-11T09:33:28.456Z,13.60
2018-04-11T09:38:22.859Z,13.70
2018-04-11T09:43:17.242Z,13.90
2018-04-11T09:48:11.628Z,14.20
2018-04-11T09:53:06.139Z,14.40
2018-04-11T09:58:01.686Z,14.30
2018-04-11T10:03:01.429Z,14.40
2018-04-11T10:07:56.780Z,14.10
2018-04-11T10:12:51.218Z,14.10
2018-04-11T10:17:45.565Z,13.90
2018-04-11T10:22:41.355Z,13.80
2018-04-11T10:27:36.023Z,13.70
2018-04-11T10:32:31.187Z,13.60
2018-04-11T10:37:25.872Z,13.60
2018-04-11T10:42:20.239Z,13.60
2018-04-11T10:47:14.801Z,13.60
2018-04-11T10:52:09.169Z,13.60
2018-04-11T10:57:04.317Z,13.80
2018-04-11T11:01:58.545Z,13.90
2018-04-11T11:06:52.945Z,14.00
2018-04-11T11:11:47.307Z,14.20
2018-04-11T11:16:41.780Z,14.20
2018-04-11T11:21:36.157Z,14.30
2018-04-11T11:26:30.300Z,14.30
2018-04-11T11:31:25.433Z,14.20
2018-04-11T11:36:19.980Z,14.20
2018-04-11T11:41:14.266Z,14.20
2018-04-11T11:46:08.780Z,14.30
2018-04-11T11:51:03.340Z,14.40
2018-04-11T11:55:58.623Z,14.80
2018-04-11T12:00:53.101Z,14.80
2018-04-11T12:05:47.477Z,15.00
2018-04-11T12:10:41.839Z,15.20
2018-04-11T12:15:36.727Z,15.40
2018-04-11T12:20:31.094Z,15.40
2018-04-11T12:25:25.997Z,15.70
2018-04-11T12:30:21.265Z,15.70
2018-04-11T12:35:15.994Z,15.70
2018-04-11T12:40:10.463Z,15.70
2018-04-11T12:45:05.646Z,15.40
2018-04-11T12:50:00.019Z,15.40
2018-04-11T12:54:54.477Z,15.20
2018-04-11T12:59:49.599Z,15.00
2018-04-11T13:04:44.795Z,14.90
2018-04-11T13:09:40.667Z,14.60
2018-04-11T13:14:34.793Z,14.50
2018-04-11T13:19:29.229Z,14.40
2018-04-11T13:24:23.875Z,14.30
2018-04-11T13:29:19.196Z,14.20
2018-04-11T13:34:13.556Z,14.10
2018-04-11T13:39:07.722Z,14.20
2018-04-11T13:44:01.832Z,14.20
2018-04-11T13:48:55.986Z,14.40
2018-04-11T13:53:50.877Z,14.90
2018-04-11T13:58:46.020Z,15.10
2018-04-11T14:03:40.382Z,15.00
2018-04-11T14:08:34.754Z,15.10
2018-04-11T14:13:28.892Z,15.20
2018-04-11T14:18:25.294Z,15.30
2018-04-11T14:23:19.674Z,15.30
2018-04-11T14:28:14.599Z,15.40
2018-04-11T14:33:09.126Z,15.40
2018-04-11T14:38:03.259Z,15.40
2018-04-11T14:42:57.639Z,15.30
2018-04-11T14:47:51.910Z,15.40
2018-04-11T14:52:46.112Z,15.70
2018-04-11T14:57:40.534Z,15.90
2018-04-11T15:02:35.161Z,16.10
2018-04-11T15:07:29.540Z,16.40
2018-04-11T15:12:24.235Z,16.60
2018-04-11T15:17:21.008Z,16.70
2018-04-11T15:22:15.393Z,16.70
2018-04-11T15:27:09.773Z,16.50
2018-04-11T15:32:05.042Z,15.40
2018-04-11T15:36:59.641Z,15.30
2018-04-11T15:41:54.112Z,15.00
2018-04-11T15:46:49.275Z,14.50
2018-04-11T15:51:45.890Z,14.50
2018-04-11T15:56:41.008Z,14.80
2018-04-11T16:01:36.785Z,15.30
2018-04-11T16:06:31.100Z,15.30
2018-04-11T16:11:26.018Z,15.50
2018-04-11T16:16:20.925Z,15.60
2018-04-11T16:21:15.322Z,15.60
2018-04-11T16:26:09.892Z,15.40
2018-04-11T16:31:05.159Z,15.20
2018-04-11T16:35:59.644Z,15.20
2018-04-11T16:40:54.017Z,15.00
2018-04-11T16:45:49.541Z,14.60
2018-04-11T16:50:44.653Z,14.40
2018-04-11T16:55:39.053Z,14.40
2018-04-11T17:00:33.495Z,14.40
2018-04-11T17:05:27.871Z,14.30
2018-04-11T17:10:22.975Z,14.30
2018-04-11T17:15:17.907Z,14.50
2018-04-11T17:20:13.051Z,14.70
2018-04-11T17:25:24.193Z,14.70
2018-04-11T17:30:35.669Z,14.60
2018-04-11T17:35:30.027Z,14.30
2018-04-11T17:40:25.194Z,13.90
2018-04-11T17:45:19.333Z,13.90
2018-04-11T17:50:13.473Z,13.70
2018-04-11T17:55:08.244Z,13.60
2018-04-11T18:00:02.657Z,13.60
2018-04-11T18:04:58.075Z,13.20
2018-04-11T18:09:53.246Z,13.10
2018-04-11T18:14:47.869Z,13.10
2018-04-11T18:19:42.289Z,13.00
2018-04-11T18:24:36.637Z,12.90
2018-04-11T18:29:31.069Z,12.80
2018-04-11T18:34:25.633Z,12.60
2018-04-11T18:39:20.329Z,12.50
2018-04-11T18:44:14.790Z,12.40
2018-04-11T18:49:09.436Z,12.30
2018-04-11T18:54:03.984Z,12.20
2018-04-11T18:58:58.550Z,12.10
2018-04-11T19:03:52.719Z,12.10
2018-04-11T19:08:47.197Z,11.90
2018-04-11T19:13:41.738Z,11.80
2018-04-11T19:18:35.971Z,11.80
2018-04-11T19:23:31.102Z,11.80
2018-04-11T19:28:26.580Z,11.70
2018-04-11T19:33:21.798Z,11.60
2018-04-11T19:38:16.381Z,11.50
2018-04-11T19:43:10.747Z,11.50
2018-04-11T19:48:05.087Z,11.40
2018-04-11T19:52:59.480Z,11.20
2018-04-11T19:57:54.824Z,11.00
2018-04-11T20:02:51.327Z,11.00
2018-04-11T20:07:49.375Z,10.90
2018-04-11T20:12:44.215Z,10.80
2018-04-11T20:17:38.561Z,10.80
2018-04-11T20:22:34.122Z,10.50
2018-04-11T20:27:29.860Z,10.50
2018-04-11T20:32:24.717Z,10.30
2018-04-11T20:37:20.280Z,10.20
2018-04-11T20:42:15.811Z,10.10
2018-04-11T20:47:11.725Z,10.00
2018-04-11T20:52:06.925Z,10.00
2018-04-11T20:57:03.042Z,10.00
2018-04-11T21:01:57.700Z,9.90
2018-04-11T21:06:53.393Z,9.80
2018-04-11T21:11:47.865Z,9.80
2018-04-11T21:16:43.907Z,9.70
2018-04-11T21:21:41.713Z,9.60
2018-04-11T21:26:36.084Z,9.60
2018-04-11T21:31:31.221Z,9.60
2018-04-11T21:36:25.608Z,9.50
2018-04-11T21:41:20.021Z,9.50
2018-04-11T21:46:15.217Z,9.50
2018-04-11T21:51:09.747Z,9.50
2018-04-11T21:56:03.895Z,9.40
2018-04-11T22:00:58.869Z,9.30
2018-04-11T22:05:53.298Z,9.30
2018-04-11T22:10:48.673Z,9.20
2018-04-11T22:15:43.465Z,9.20
2018-04-11T22:20:37.870Z,9.20
2018-04-11T22:25:32.705Z,9.10
2018-04-11T22:30:27.271Z,9.00
2018-04-11T22:35:22.528Z,8.90
2018-04-11T22:40:16.904Z,8.90
2018-04-11T22:45:11.417Z,8.90
2018-04-11T22:50:05.654Z,8.80
2018-04-11T22:55:00.101Z,8.80
2018-04-11T22:59:55.252Z,8.70
2018-04-11T23:04:49.634Z,8.70
2018-04-11T23:09:43.759Z,8.60
2018-04-11T23:14:38.147Z,8.60
2018-04-11T23:19:32.671Z,8.60
2018-04-11T23:24:27.036Z,8.50
2018-04-11T23:29:21.427Z,8.50
2018-04-11T23:34:16.738Z,8.40
2018-04-11T23:39:11.891Z,8.40
2018-04-11T23:44:06.999Z,8.40
2018-04-11T23:49:01.703Z,8.40
2018-04-11T23:53:56.385Z,8.40
2018-04-11T23:58:50.795Z,8.30
